createdAt,value
2024-05-09T00:00:44.895Z,11.53
2024-05-09T00:05:46.707Z,12.62
2024-05-09T00:10:48.432Z,13.10
2024-05-09T00:15:50.135Z,12.21
2024-05-09T00:20:52.013Z,11.65
2024-05-09T00:25:53.666Z,12.08
2024-05-09T00:30:55.284Z,12.63
2024-05-09T00:35:56.871Z,10.69
2024-05-09T00:40:58.498Z,12.47
2024-05-09T00:46:01.949Z,12.60
2024-05-09T00:51:04.814Z,11.66
2024-05-09T00:56:09.728Z,12.35
2024-05-09T01:01:11.562Z,9.51
2024-05-09T01:06:13.148Z,11.51
2024-05-09T01:11:16.446Z,11.94
2024-05-09T01:16:18.063Z,10.17
2024-05-09T01:21:19.770Z,11.54
2024-05-09T01:26:21.451Z,11.95
2024-05-09T01:31:23.098Z,10.94
2024-05-09T01:36:24.687Z,11.94
2024-05-09T01:41:26.407Z,11.96
2024-05-09T01:46:28.073Z,11.93
2024-05-09T01:51:29.699Z,11.83
2024-05-09T01:56:31.337Z,11.82
2024-05-09T02:01:55.434Z,11.82
2024-05-09T02:06:54.595Z,11.81
2024-05-09T02:11:56.353Z,11.44
2024-05-09T02:16:58.186Z,11.63
2024-05-09T02:21:59.784Z,11.62
2024-05-09T02:27:01.368Z,11.58
2024-05-09T02:32:03.115Z,11.47
2024-05-09T02:37:04.789Z,11.39
2024-05-09T02:42:06.412Z,11.30
2024-05-09T02:47:08.104Z,11.17
2024-05-09T02:52:09.788Z,11.13
2024-05-09T02:57:11.378Z,11.13
2024-05-09T03:02:13.709Z,11.05
2024-05-09T03:07:15.398Z,11.02
2024-05-09T03:12:17.023Z,10.99
2024-05-09T03:17:18.741Z,10.99
2024-05-09T03:22:20.348Z,10.91
2024-05-09T03:27:24.151Z,10.84
2024-05-09T03:32:25.868Z,10.83
2024-05-09T03:37:27.823Z,10.77
2024-05-09T03:42:29.413Z,10.71
2024-05-09T03:47:32.571Z,10.71
2024-05-09T03:52:34.239Z,10.69
2024-05-09T03:57:35.865Z,10.62
2024-05-09T04:02:42.558Z,10.53
2024-05-09T04:07:44.902Z,10.02
2024-05-09T04:12:46.525Z,10.40
2024-05-09T04:17:51.356Z,10.48
2024-05-09T04:22:53.327Z,10.52
2024-05-09T04:27:55.968Z,10.55
2024-05-09T04:32:57.728Z,10.52
2024-05-09T04:37:59.567Z,10.42
2024-05-09T04:43:01.381Z,10.41
2024-05-09T04:48:03.515Z,10.47
2024-05-09T04:53:06.947Z,10.12
2024-05-09T04:58:11.539Z,10.03
2024-05-09T05:03:15.506Z,9.78
2024-05-09T05:08:19.279Z,10.32
2024-05-09T05:13:24.653Z,9.95
2024-05-09T05:18:28.038Z,10.38
2024-05-09T05:23:30.102Z,8.57
2024-05-09T05:28:31.818Z,8.91
2024-05-09T05:33:33.487Z,9.30
2024-05-09T05:38:35.164Z,10.27
2024-05-09T05:43:36.754Z,10.58
2024-05-09T05:48:38.572Z,9.66
2024-05-09T05:53:40.366Z,9.98
2024-05-09T05:58:43.214Z,10.58
2024-05-09T06:03:45.019Z,10.69
2024-05-09T06:08:46.805Z,11.10
2024-05-09T06:13:48.486Z,11.67
2024-05-09T06:18:50.213Z,11.49
2024-05-09T06:23:53.401Z,11.31
2024-05-09T06:28:55.164Z,11.63
2024-05-09T06:33:56.906Z,11.95
2024-05-09T06:38:58.552Z,12.04
2024-05-09T06:44:00.322Z,12.06
2024-05-09T06:49:08.361Z,12.32
2024-05-09T06:54:10.193Z,12.38
2024-05-09T06:59:11.845Z,12.59
2024-05-09T07:04:13.619Z,13.26
2024-05-09T07:09:15.259Z,13.16
2024-05-09T07:14:16.929Z,13.70
2024-05-09T07:19:19.209Z,13.71
2024-05-09T07:24:20.908Z,13.67
2024-05-09T07:29:22.701Z,13.99
2024-05-09T07:34:25.321Z,14.45
2024-05-09T07:39:27.204Z,14.30
2024-05-09T07:44:30.518Z,14.71
2024-05-09T07:54:37.398Z,14.91
2024-05-09T07:59:39.362Z,15.16
2024-05-09T08:04:41.271Z,15.57
2024-05-09T08:09:43.144Z,15.64
2024-05-09T08:14:44.739Z,15.91
2024-05-09T08:19:46.425Z,16.01
2024-05-09T08:24:48.092Z,15.96
2024-05-09T08:29:49.785Z,16.61
2024-05-09T08:34:51.500Z,16.50
2024-05-09T08:39:53.172Z,16.23
2024-05-09T08:44:54.787Z,16.53
2024-05-09T08:49:58.790Z,16.73
2024-05-09T08:55:01.483Z,16.82
2024-05-09T09:00:09.978Z,16.97
2024-05-09T09:05:17.217Z,16.95
2024-05-09T09:10:29.160Z,17.40
2024-05-09T09:15:33.486Z,17.96
2024-05-09T09:20:36.853Z,18.11
2024-05-09T09:25:39.819Z,17.91
2024-05-09T09:30:42.599Z,18.09
2024-05-09T09:35:44.287Z,18.09
2024-05-09T09:40:49.722Z,18.30
2024-05-09T09:45:53.449Z,18.04
2024-05-09T09:50:56.609Z,18.59
2024-05-09T09:55:59.240Z,18.30
2024-05-09T10:01:00.997Z,18.96
2024-05-09T10:06:03.858Z,18.73
2024-05-09T10:11:06.368Z,18.71
2024-05-09T10:16:10.017Z,18.79
2024-05-09T10:21:18.627Z,18.98
2024-05-09T10:26:30.834Z,19.52
2024-05-09T10:31:32.552Z,19.22
2024-05-09T10:36:41.910Z,19.21
2024-05-09T10:41:43.584Z,18.96
2024-05-09T10:46:46.281Z,19.63
2024-05-09T10:51:48.717Z,18.88
2024-05-09T10:56:57.648Z,19.75
2024-05-09T11:02:02.812Z,20.01
2024-05-09T11:07:12.068Z,20.11
2024-05-09T11:12:14.128Z,19.55
2024-05-09T11:17:15.866Z,19.51
2024-05-09T11:22:17.782Z,20.08
2024-05-09T11:27:20.833Z,20.11
2024-05-09T11:32:29.867Z,20.24
2024-05-09T11:37:35.302Z,20.24
2024-05-09T11:42:37.696Z,20.39
2024-05-09T11:47:39.778Z,19.77
2024-05-09T11:52:41.567Z,20.03
2024-05-09T11:57:43.232Z,20.79
2024-05-09T12:02:44.888Z,21.08
2024-05-09T12:07:46.502Z,20.93
2024-05-09T12:12:48.139Z,20.72
2024-05-09T12:17:50.821Z,20.23
2024-05-09T12:22:52.777Z,20.04
2024-05-09T12:27:54.435Z,19.76
2024-05-09T12:32:56.369Z,19.73
2024-05-09T12:37:58.158Z,20.59
2024-05-09T12:42:59.799Z,20.75
2024-05-09T12:48:01.632Z,20.99
2024-05-09T12:53:04.299Z,21.43
2024-05-09T12:58:10.102Z,20.82
2024-05-09T13:03:12.136Z,21.27
2024-05-09T13:08:13.944Z,21.33
2024-05-09T13:13:15.673Z,21.00
2024-05-09T13:18:20.361Z,20.32
2024-05-09T13:23:22.161Z,21.01
2024-05-09T13:28:23.983Z,21.13
2024-05-09T13:33:25.911Z,21.16
2024-05-09T13:38:27.784Z,21.14
2024-05-09T13:43:29.626Z,21.50
2024-05-09T13:48:31.646Z,21.26
2024-05-09T13:53:33.319Z,21.63
2024-05-09T13:58:35.179Z,21.13
2024-05-09T14:03:37.013Z,21.05
2024-05-09T14:08:38.744Z,21.34
2024-05-09T14:13:40.331Z,21.39
2024-05-09T14:18:41.957Z,20.65
2024-05-09T14:23:44.471Z,20.33
2024-05-09T14:28:46.103Z,20.35
2024-05-09T14:33:47.794Z,21.09
2024-05-09T14:38:49.479Z,21.48
2024-05-09T14:43:51.148Z,21.94
2024-05-09T14:48:52.872Z,21.55
2024-05-09T14:53:54.513Z,21.58
2024-05-09T14:58:57.191Z,21.83
2024-05-09T15:03:58.939Z,20.27
2024-05-09T15:09:01.874Z,21.05
2024-05-09T15:14:03.483Z,23.60
2024-05-09T15:19:05.517Z,21.02
2024-05-09T15:24:07.200Z,21.29
2024-05-09T15:29:09.164Z,22.65
2024-05-09T15:34:10.742Z,22.72
2024-05-09T15:39:12.582Z,21.61
2024-05-09T15:44:14.194Z,24.09
2024-05-09T15:49:15.986Z,22.78
2024-05-09T15:54:17.731Z,24.00
2024-05-09T15:59:20.800Z,21.77
2024-05-09T16:04:22.617Z,21.40
2024-05-09T16:09:24.480Z,20.98
2024-05-09T16:14:26.094Z,21.39
2024-05-09T16:19:27.683Z,24.68
2024-05-09T16:24:29.268Z,23.41
2024-05-09T16:29:30.896Z,22.17
2024-05-09T16:34:32.524Z,23.84
2024-05-09T16:39:34.184Z,23.93
2024-05-09T16:44:35.801Z,23.03
2024-05-09T16:49:37.436Z,23.79
2024-05-09T16:54:39.068Z,22.08
2024-05-09T16:59:40.706Z,24.22
2024-05-09T17:04:43.029Z,21.18
2024-05-09T17:09:45.551Z,24.52
2024-05-09T17:14:47.175Z,24.06
2024-05-09T17:19:48.767Z,23.88
2024-05-09T17:24:50.384Z,24.08
2024-05-09T17:29:52.035Z,24.44
2024-05-09T17:34:53.684Z,24.37
2024-05-09T17:39:55.390Z,24.19
2024-05-09T17:44:57.003Z,24.68
2024-05-09T17:49:58.636Z,24.67
2024-05-09T17:55:00.533Z,24.33
2024-05-09T18:00:04.077Z,24.09
2024-05-09T18:05:14.052Z,24.26
2024-05-09T18:10:21.989Z,24.11
2024-05-09T18:15:27.331Z,23.97
2024-05-09T18:20:37.906Z,23.91
2024-05-09T18:25:45.586Z,23.73
2024-05-09T18:30:47.407Z,23.71
2024-05-09T18:35:49.089Z,23.49
2024-05-09T18:40:51.074Z,23.48
2024-05-09T18:45:52.743Z,23.15
2024-05-09T18:50:54.445Z,23.17
2024-05-09T18:55:56.103Z,23.10
2024-05-09T19:00:59.971Z,22.81
2024-05-09T19:06:03.305Z,22.62
2024-05-09T19:11:05.110Z,22.53
2024-05-09T19:16:07.056Z,22.39
2024-05-09T19:21:08.674Z,22.23
2024-05-09T19:26:10.280Z,22.05
2024-05-09T19:31:11.991Z,21.81
2024-05-09T19:36:13.667Z,21.65
2024-05-09T19:41:15.266Z,21.42
2024-05-09T19:46:17.222Z,21.31
2024-05-09T19:51:18.852Z,21.15
2024-05-09T19:56:20.999Z,20.92
2024-05-09T20:01:22.754Z,20.79
2024-05-09T20:06:26.292Z,20.60
2024-05-09T20:11:28.013Z,20.45
2024-05-09T20:16:29.730Z,20.34
2024-05-09T20:21:31.417Z,20.13
2024-05-09T20:26:33.036Z,19.99
2024-05-09T20:31:34.682Z,19.82
2024-05-09T20:36:36.338Z,19.67
2024-05-09T20:41:44.258Z,19.50
2024-05-09T20:46:45.998Z,19.38
2024-05-09T20:51:47.700Z,19.27
2024-05-09T20:56:49.344Z,17.94
2024-05-09T21:01:51.062Z,16.28
2024-05-09T21:06:52.760Z,17.39
2024-05-09T21:11:54.470Z,18.20
2024-05-09T21:16:56.211Z,16.44
2024-05-09T21:21:57.950Z,18.11
2024-05-09T21:26:59.602Z,18.09
2024-05-09T21:32:01.240Z,18.03
2024-05-09T21:37:02.890Z,17.80
2024-05-09T21:42:04.747Z,17.63
2024-05-09T21:47:06.401Z,17.74
2024-05-09T21:52:08.032Z,17.58
2024-05-09T21:57:10.081Z,17.53
2024-05-09T22:02:12.367Z,17.42
2024-05-09T22:07:14.188Z,17.31
2024-05-09T22:12:15.904Z,17.17
2024-05-09T22:17:17.556Z,17.00
2024-05-09T22:22:20.421Z,16.91
2024-05-09T22:27:22.041Z,16.83
2024-05-09T22:32:23.680Z,16.63
2024-05-09T22:37:25.341Z,16.63
2024-05-09T22:42:27.089Z,16.51
2024-05-09T22:47:28.774Z,16.43
2024-05-09T22:52:30.376Z,16.29
2024-05-09T22:57:32.191Z,16.19
2024-05-09T23:02:34.955Z,16.11
2024-05-09T23:07:36.597Z,15.97
2024-05-09T23:12:39.362Z,15.86
2024-05-09T23:17:41.457Z,15.68
2024-05-09T23:22:43.148Z,15.71
2024-05-09T23:27:44.781Z,15.59
2024-05-09T23:32:46.465Z,15.48
2024-05-09T23:37:48.067Z,15.43
2024-05-09T23:42:49.794Z,15.31
2024-05-09T23:47:51.518Z,14.68
2024-05-09T23:52:53.144Z,13.70
2024-05-09T23:57:54.758Z,14.77
